Time;durP1;ratioP1;P1;durP2;ratioP2;P2;SDS_P1;SDS_P2;PMS_P1;PMS_P2;Temp;Humidity;BMP_temperature;BMP_pressure;BME280_temperature;BME280_humidity;BME280_pressure;Samples;Min_cycle;Max_cycle;Signal;HPM_P1;HPM_P2
2022/06/03 00:03:04;;;;;;;9.13;6.38;;;;;;;13.20;64.03;101913.03;5040295;28;20039;-55
2022/06/03 00:06:08;;;;;;;10.20;7.20;;;;;;;13.15;64.19;101910.00;5047554;28;20082;-53
2022/06/03 00:08:55;;;;;;;9.15;7.00;;;;;;;13.06;64.39;101916.31;5048511;28;20036;-55
2022/06/03 00:12:02;;;;;;;8.68;7.03;;;;;;;13.06;64.53;101911.81;5045189;28;20033;-55
2022/06/03 00:14:27;;;;;;;9.15;6.93;;;;;;;13.01;64.67;101906.13;5049327;28;20032;-54
2022/06/03 00:17:11;;;;;;;8.32;6.90;;;;;;;13.01;65.11;101914.13;5050397;28;20423;-56
2022/06/03 00:19:53;;;;;;;8.00;7.20;;;;;;;12.96;65.06;101906.56;5048037;28;20047;-54
2022/06/03 00:22:40;;;;;;;10.57;7.57;;;;;;;12.94;64.91;101907.72;5044206;28;20092;-55
2022/06/03 00:25:16;;;;;;;8.38;6.75;;;;;;;12.85;65.15;101900.69;5052375;28;20036;-55
2022/06/03 00:28:05;;;;;;;9.10;7.03;;;;;;;12.88;65.20;101908.38;5043935;28;20088;-56
2022/06/03 00:31:15;;;;;;;8.48;7.10;;;;;;;12.85;65.31;101908.69;5049976;28;20036;-55
2022/06/03 00:34:15;;;;;;;10.68;6.97;;;;;;;12.81;65.42;101912.69;5045095;28;20504;-55
2022/06/03 00:36:52;;;;;;;12.00;7.30;;;;;;;12.77;65.36;101906.00;5043318;28;20420;-55
2022/06/03 00:39:55;;;;;;;9.73;7.18;;;;;;;12.76;65.65;101904.31;5049292;28;20029;-54
2022/06/03 00:42:49;;;;;;;7.50;6.80;;;;;;;12.71;65.44;101902.94;5046140;28;20087;-54
2022/06/03 00:45:32;;;;;;;8.00;7.20;;;;;;;12.69;65.71;101899.59;5042975;28;20033;-55
2022/06/03 00:48:20;;;;;;;8.13;7.18;;;;;;;12.66;65.67;101897.25;5045017;28;20469;-52
2022/06/03 00:51:00;;;;;;;8.30;7.28;;;;;;;12.62;65.80;101903.06;5041821;28;20025;-55
2022/06/03 00:53:47;;;;;;;7.80;7.00;;;;;;;12.62;66.08;101900.41;5041888;28;20127;-55
2022/06/03 00:56:27;;;;;;;7.53;6.60;;;;;;;12.58;66.18;101901.72;5047919;28;20207;-54
2022/06/03 00:59:02;;;;;;;8.38;7.18;;;;;;;12.56;66.15;101888.56;5043337;28;20094;-55
2022/06/03 01:01:43;;;;;;;7.53;6.45;;;;;;;12.55;66.37;101891.38;5047477;28;20044;-53
2022/06/03 01:04:56;;;;;;;8.90;7.63;;;;;;;12.54;66.67;101889.72;5047682;28;20037;-56
2022/06/03 01:07:42;;;;;;;8.52;6.85;;;;;;;12.49;66.68;101882.19;4971562;28;20117;-52
2022/06/03 01:10:46;;;;;;;7.45;6.70;;;;;;;12.53;66.67;101880.88;5043818;28;20048;-55
2022/06/03 01:13:53;;;;;;;8.73;6.57;;;;;;;12.54;66.69;101885.22;5045709;28;20048;-55
2022/06/03 01:16:24;;;;;;;7.90;6.53;;;;;;;12.57;66.43;101882.22;5031751;28;20040;-55
2022/06/03 01:19:14;;;;;;;8.07;7.03;;;;;;;12.54;66.59;101885.22;5050772;28;20039;-54
2022/06/03 01:22:01;;;;;;;8.43;6.03;;;;;;;12.59;66.86;101882.06;5047370;28;20082;-55
2022/06/03 01:24:29;;;;;;;12.77;6.55;;;;;;;12.61;66.75;101883.56;5046985;28;20023;-54
2022/06/03 01:27:25;;;;;;;7.13;6.43;;;;;;;12.63;66.72;101878.94;5044548;28;20029;-54
2022/06/03 01:30:06;;;;;;;9.23;6.50;;;;;;;12.64;66.98;101869.94;5048026;28;20036;-55
2022/06/03 01:32:34;;;;;;;8.55;6.88;;;;;;;12.59;67.18;101877.56;5047184;28;20039;-55
2022/06/03 01:35:08;;;;;;;7.05;6.43;;;;;;;12.61;67.18;101872.91;5048685;28;20039;-53
2022/06/03 01:38:05;;;;;;;8.38;6.50;;;;;;;12.63;67.41;101870.09;5046974;28;20508;-54
2022/06/03 01:40:43;;;;;;;8.27;7.15;;;;;;;12.60;67.25;101868.59;5029419;28;20056;-55
2022/06/03 01:43:18;;;;;;;7.60;6.75;;;;;;;12.60;67.24;101873.91;5048478;28;20028;-52
2022/06/03 01:46:18;;;;;;;8.75;6.75;;;;;;;12.64;67.44;101875.25;5045193;28;20033;-55
2022/06/03 01:48:51;;;;;;;7.13;6.43;;;;;;;12.62;67.08;101866.59;4999752;28;20049;-55
2022/06/03 01:51:54;;;;;;;10.93;7.35;;;;;;;12.65;66.86;101860.13;5043952;28;20036;-54
2022/06/03 01:55:08;;;;;;;7.68;6.47;;;;;;;12.67;67.02;101858.13;5044638;28;20080;-55
2022/06/03 01:57:42;;;;;;;7.95;6.90;;;;;;;12.64;66.95;101855.78;4980129;28;20052;-55
2022/06/03 02:00:27;;;;;;;7.15;6.45;;;;;;;12.66;66.70;101849.28;5046127;28;20036;-55
2022/06/03 02:03:35;;;;;;;7.32;6.63;;;;;;;12.66;66.86;101849.28;5047990;28;20044;-52
2022/06/03 02:06:37;;;;;;;9.32;6.75;;;;;;;12.65;66.97;101849.44;5046745;28;21782;-55
2022/06/03 02:09:11;;;;;;;8.85;7.20;;;;;;;12.59;66.57;101855.41;5044066;28;20029;-55
2022/06/03 02:11:46;;;;;;;7.50;6.80;;;;;;;12.53;67.09;101848.91;5046655;28;20151;-55
2022/06/03 02:14:33;;;;;;;8.00;6.75;;;;;;;12.50;67.03;101859.88;5048111;28;20121;-54
2022/06/03 02:17:19;;;;;;;10.10;7.13;;;;;;;12.47;67.32;101851.38;5038798;28;20492;-54
2022/06/03 02:20:06;;;;;;;9.77;7.38;;;;;;;12.42;66.98;101849.16;5046210;28;20032;-55
2022/06/03 02:23:06;;;;;;;9.30;7.28;;;;;;;12.43;67.11;101840.16;5046471;28;20107;-55
2022/06/03 02:25:59;;;;;;;10.18;7.50;;;;;;;12.39;67.30;101841.47;5042117;28;20040;-54
2022/06/03 02:30:24;;;;;;;7.85;7.03;;;;;;;12.35;67.54;101837.47;5043544;28;20123;-56
2022/06/03 02:32:16;;;;;;;8.90;7.75;;;;;;;12.30;67.63;101837.13;5044872;28;20044;-55
2022/06/03 02:35:09;;;;;;;9.55;7.93;;;;;;;12.25;67.81;101840.25;5032782;28;20106;-55
2022/06/03 02:37:41;;;;;;;9.10;7.97;;;;;;;12.22;67.94;101834.41;5044172;28;20047;-54
2022/06/03 02:40:38;;;;;;;11.98;8.05;;;;;;;12.20;68.26;101831.91;5047728;28;20037;-55
2022/06/03 02:43:22;;;;;;;12.30;8.02;;;;;;;12.15;68.27;101833.38;5047012;28;20040;-54
2022/06/03 02:46:21;;;;;;;10.40;7.85;;;;;;;12.11;68.58;101835.47;5041241;28;20041;-55
2022/06/03 02:49:21;;;;;;;9.93;8.77;;;;;;;12.09;68.47;101827.66;5038359;28;20040;-55
2022/06/03 02:51:55;;;;;;;;;;;;;;;12.16;68.01;101827.88;5047013;28;20028;-54
2022/06/03 02:54:23;;;;;;;11.27;8.15;;;;;;;12.01;68.29;101822.28;5042641;28;20326;-55
2022/06/03 02:57:20;;;;;;;9.40;8.30;;;;;;;11.99;68.73;101818.94;5038831;28;20032;-54
2022/06/03 03:00:04;;;;;;;9.27;8.35;;;;;;;11.93;68.83;101819.56;5043181;28;20041;-55
2022/06/03 03:02:57;;;;;;;9.55;8.18;;;;;;;11.88;69.25;101813.88;5047222;28;20036;-53
2022/06/03 03:05:37;;;;;;;9.45;8.25;;;;;;;11.86;69.12;101813.19;5045128;28;20036;-53
2022/06/03 03:08:19;;;;;;;12.38;8.38;;;;;;;11.85;68.99;101814.16;5050246;28;20060;-54
2022/06/03 03:11:17;;;;;;;10.15;7.85;;;;;;;11.84;69.26;101822.31;5044181;28;20078;-55
2022/06/03 03:14:01;;;;;;;11.07;8.50;;;;;;;11.88;69.31;101827.19;5040366;28;20044;-55
2022/06/03 03:17:00;;;;;;;9.50;8.52;;;;;;;11.84;69.79;101830.28;5044536;28;20029;-54
2022/06/03 03:19:36;;;;;;;;;;;;;;;11.97;68.93;101831.56;5046015;28;20606;-55
2022/06/03 03:22:26;;;;;;;9.77;8.70;;;;;;;11.88;69.41;101829.00;5045396;28;19960;-55
2022/06/03 03:25:23;;;;;;;10.68;8.88;;;;;;;11.79;69.25;101822.78;5049065;28;20040;-52
2022/06/03 03:28:10;;;;;;;9.73;8.27;;;;;;;11.75;69.46;101816.06;5048173;28;20032;-54
2022/06/03 03:30:42;;;;;;;9.68;8.73;;;;;;;11.72;69.61;101814.53;5045043;28;20025;-55
2022/06/03 03:33:21;;;;;;;10.85;9.30;;;;;;;11.71;69.77;101809.38;5049278;28;20105;-54
2022/06/03 03:36:28;;;;;;;11.88;9.23;;;;;;;11.72;69.91;101814.53;5046456;28;20382;-54
2022/06/03 03:39:30;;;;;;;10.30;8.93;;;;;;;11.70;70.19;101803.22;5054331;28;20028;-54
2022/06/03 03:42:14;;;;;;;11.30;9.25;;;;;;;11.72;70.04;101809.22;5048664;28;20392;-55
2022/06/03 03:45:02;;;;;;;12.07;9.38;;;;;;;11.71;70.28;101799.56;5049042;28;20045;-55
2022/06/03 03:47:44;;;;;;;11.18;9.93;;;;;;;11.69;70.55;101806.03;5045557;28;20134;-53
2022/06/03 03:50:09;;;;;;;10.15;9.15;;;;;;;11.65;70.54;101800.19;5050523;28;20025;-55
2022/06/03 03:53:19;;;;;;;11.82;9.48;;;;;;;11.66;70.69;101807.19;5047520;28;20036;-54
2022/06/03 03:56:10;;;;;;;10.27;9.07;;;;;;;11.62;70.50;101805.00;4998021;28;20124;-53
2022/06/03 03:58:57;;;;;;;10.73;9.40;;;;;;;11.59;70.62;101805.31;5046680;28;20400;-52
2022/06/03 04:01:41;;;;;;;9.80;8.80;;;;;;;11.59;70.99;101798.16;5047712;28;20053;-55
2022/06/03 04:04:31;;;;;;;10.63;8.35;;;;;;;11.64;71.18;101803.00;5048542;28;20315;-55
2022/06/03 04:07:15;;;;;;;10.70;8.90;;;;;;;11.60;71.41;101802.47;5045335;28;20574;-54
2022/06/03 04:09:53;;;;;;;9.85;8.80;;;;;;;11.60;71.67;101799.00;5044453;28;20060;-54
2022/06/03 04:12:30;;;;;;;10.38;8.80;;;;;;;11.60;71.51;101801.66;5049856;28;20392;-54
2022/06/03 04:15:26;;;;;;;10.32;9.18;;;;;;;11.63;71.83;101791.53;5049364;28;20539;-54
2022/06/03 04:18:12;;;;;;;10.20;9.20;;;;;;;11.66;71.79;101791.22;5041314;28;20397;-54
2022/06/03 04:21:05;;;;;;;10.02;9.02;;;;;;;11.68;71.82;101788.41;5046574;28;20035;-53
2022/06/03 04:23:52;;;;;;;10.00;9.00;;;;;;;11.68;72.14;101791.06;5047404;28;20037;-55
2022/06/03 04:26:54;;;;;;;10.82;9.13;;;;;;;11.72;71.69;101787.94;5046145;28;20075;-53
2022/06/03 04:29:57;;;;;;;10.38;9.05;;;;;;;11.73;71.82;101786.94;5049802;28;20086;-53
2022/06/03 04:33:01;;;;;;;13.27;9.00;;;;;;;11.77;71.41;101788.31;5042253;28;20163;-55
2022/06/03 04:36:11;;;;;;;9.93;8.85;;;;;;;11.83;70.99;101783.38;5045642;28;20099;-55
2022/06/03 04:38:54;;;;;;;11.05;8.88;;;;;;;11.86;71.00;101786.59;5050186;28;20090;-54
2022/06/03 04:41:37;;;;;;;9.73;8.82;;;;;;;11.89;71.30;101783.59;5046610;28;20032;-56
2022/06/03 04:44:05;;;;;;;11.30;9.23;;;;;;;11.93;71.17;101784.97;5041532;28;20093;-55
2022/06/03 04:46:49;;;;;;;10.18;8.77;;;;;;;11.98;71.25;101787.97;5046491;28;20451;-55
2022/06/03 04:49:32;;;;;;;10.20;9.10;;;;;;;12.04;71.49;101789.19;5050612;28;20036;-56
2022/06/03 04:52:38;;;;;;;12.25;8.95;;;;;;;12.08;71.62;101793.19;5042056;28;20124;-55
2022/06/03 04:55:41;;;;;;;12.38;9.65;;;;;;;12.15;71.10;101794.25;5045942;28;20029;-55
2022/06/03 04:58:37;;;;;;;12.13;9.60;;;;;;;12.22;71.11;101799.78;5041712;28;20028;-55
2022/06/03 05:01:38;;;;;;;10.70;9.60;;;;;;;12.29;71.33;101800.81;5039452;28;20128;-55
2022/06/03 05:04:37;;;;;;;15.63;10.02;;;;;;;12.37;71.09;101800.84;5046270;28;20107;-56
2022/06/03 05:07:21;;;;;;;12.80;10.10;;;;;;;12.42;70.72;101801.19;5044346;28;20124;-54
2022/06/03 05:10:23;;;;;;;11.18;9.77;;;;;;;12.49;70.68;101802.25;5048230;28;20033;-56
2022/06/03 05:13:39;;;;;;;10.90;9.80;;;;;;;12.56;70.62;101803.28;5052695;28;20086;-55
2022/06/03 05:16:42;;;;;;;12.65;10.60;;;;;;;12.65;70.51;101801.47;4956844;28;1043658;-55
2022/06/03 05:19:13;;;;;;;12.23;10.40;;;;;;;12.76;70.96;101805.72;5047591;28;20036;-55
2022/06/03 05:22:16;;;;;;;16.92;10.23;;;;;;;12.86;70.70;101798.41;5045796;28;20041;-55
2022/06/03 05:24:51;;;;;;;12.07;10.35;;;;;;;12.92;70.94;101793.25;4947927;29;20039;-55
2022/06/03 05:27:34;;;;;;;12.60;10.07;;;;;;;13.02;70.88;101796.63;4947067;28;20042;-54
2022/06/03 05:30:45;;;;;;;14.05;10.55;;;;;;;13.11;70.36;101799.31;5006766;28;20048;-53
2022/06/03 05:33:38;;;;;;;12.68;10.00;;;;;;;13.21;70.64;101792.00;5047445;28;20041;-53
2022/06/03 05:36:46;;;;;;;12.30;11.00;;;;;;;13.30;70.50;101791.88;5043569;28;20031;-55
2022/06/03 05:39:48;;;;;;;12.93;10.38;;;;;;;13.40;70.33;101785.53;5043838;28;20144;-55
2022/06/03 05:42:38;;;;;;;15.10;10.65;;;;;;;13.47;70.31;101787.38;5045471;28;20450;-57
2022/06/03 05:45:25;;;;;;;15.15;10.95;;;;;;;13.55;69.95;101783.84;5045109;28;20028;-56
2022/06/03 05:47:58;;;;;;;15.60;11.00;;;;;;;13.62;69.83;101791.06;5040913;28;20032;-57
2022/06/03 05:50:57;;;;;;;19.05;10.75;;;;;;;13.71;69.73;101785.69;5034681;28;20446;-56
2022/06/03 05:53:44;;;;;;;12.57;10.18;;;;;;;13.74;69.25;101785.38;5040293;28;20031;-56
2022/06/03 05:56:21;;;;;;;12.93;10.80;;;;;;;13.75;68.58;101787.88;5044789;28;20031;-57
2022/06/03 05:59:00;;;;;;;13.18;10.13;;;;;;;13.81;68.55;101781.84;5045277;28;20674;-57
2022/06/03 06:01:36;;;;;;;11.57;9.57;;;;;;;13.81;68.06;101781.84;5043320;28;20079;-55
2022/06/03 06:04:23;;;;;;;12.65;10.23;;;;;;;13.94;68.47;101786.69;5046124;28;20124;-55
2022/06/03 06:07:00;;;;;;;10.55;9.55;;;;;;;14.01;68.52;101787.66;5046558;28;20103;-54
2022/06/03 06:09:52;;;;;;;10.93;9.48;;;;;;;14.08;68.23;101779.81;5045329;28;20542;-55
2022/06/03 06:12:22;;;;;;;11.10;9.80;;;;;;;14.15;68.07;101788.78;5049667;28;20062;-54
2022/06/03 06:15:44;;;;;;;13.32;10.00;;;;;;;14.24;67.94;101793.13;5049833;28;20051;-56
2022/06/03 06:18:33;;;;;;;11.18;9.30;;;;;;;14.32;67.65;101774.41;4965057;28;20030;-56
2022/06/03 06:21:23;;;;;;;10.70;9.20;;;;;;;14.41;67.32;101783.22;4970808;28;20061;-54
2022/06/03 06:24:04;;;;;;;11.43;9.60;;;;;;;14.52;67.81;101788.22;5029480;28;20582;-55
2022/06/03 06:26:43;;;;;;;10.23;8.70;;;;;;;14.60;67.53;101795.38;5052179;28;20025;-56
2022/06/03 06:29:27;;;;;;;10.80;8.95;;;;;;;14.67;67.10;101796.34;5012244;28;20035;-55
2022/06/03 06:32:30;;;;;;;12.80;9.40;;;;;;;14.73;66.42;101790.28;5047996;28;20040;-56
2022/06/03 06:35:32;;;;;;;10.05;8.95;;;;;;;14.78;66.13;101785.28;5041736;28;20087;-54
2022/06/03 06:38:14;;;;;;;10.93;8.60;;;;;;;14.86;66.32;101790.56;5041996;28;20025;-52
2022/06/03 06:41:17;;;;;;;9.52;8.52;;;;;;;14.97;66.56;101792.84;5039924;28;20025;-57
2022/06/03 06:44:11;;;;;;;10.90;9.15;;;;;;;15.01;65.71;101787.97;5047818;28;20120;-56
2022/06/03 06:46:57;;;;;;;9.90;8.90;;;;;;;15.12;65.78;101779.56;5005167;28;20086;-53
2022/06/03 06:49:33;;;;;;;9.48;8.50;;;;;;;15.20;65.33;101782.16;5046312;28;20440;-54
2022/06/03 06:52:20;;;;;;;12.73;9.10;;;;;;;15.28;65.12;101786.63;5049137;28;20040;-55
2022/06/03 06:55:04;;;;;;;11.40;8.85;;;;;;;15.35;64.74;101780.41;5045552;28;20032;-55
2022/06/03 06:57:36;;;;;;;10.00;8.70;;;;;;;15.43;64.82;101777.66;5051726;28;20503;-56
2022/06/03 07:00:16;;;;;;;9.77;8.35;;;;;;;15.53;64.51;101788.09;5045479;28;20028;-56
2022/06/03 07:03:04;;;;;;;9.45;8.38;;;;;;;15.60;63.99;101788.25;5046484;28;20023;-56
2022/06/03 07:05:41;;;;;;;13.10;9.00;;;;;;;15.64;63.85;101789.56;5046392;28;20032;-56
2022/06/03 07:08:18;;;;;;;12.30;8.50;;;;;;;15.70;63.77;101789.69;5049742;28;20025;-55
2022/06/03 07:10:59;;;;;;;9.80;8.10;;;;;;;15.76;63.16;101783.59;5047288;28;20025;-54
2022/06/03 07:13:42;;;;;;;11.30;8.65;;;;;;;15.82;63.02;101784.72;5045471;28;20021;-53
2022/06/03 07:19:47;;;;;;;10.85;8.68;;;;;;;15.91;63.04;101797.03;5056245;28;20369;-53
2022/06/03 07:22:17;;;;;;;10.35;8.70;;;;;;;16.06;62.57;101778.28;5045005;28;20457;-53
2022/06/03 07:25:20;;;;;;;11.80;8.77;;;;;;;16.14;62.44;101786.22;5050890;28;20488;-54
2022/06/03 07:28:09;;;;;;;11.40;8.38;;;;;;;16.20;61.79;101790.03;5047563;28;20503;-56
2022/06/03 07:30:51;;;;;;;12.10;8.82;;;;;;;16.29;61.84;101776.34;5047041;28;20123;-55
2022/06/03 07:33:32;;;;;;;10.85;8.25;;;;;;;16.36;61.77;101779.94;5045069;28;20029;-53
2022/06/03 07:36:03;;;;;;;9.27;7.82;;;;;;;16.42;61.65;101776.53;5047834;28;20023;-56
2022/06/03 07:38:40;;;;;;;9.15;7.80;;;;;;;16.49;60.88;101773.13;5049646;28;20534;-56
2022/06/03 07:41:15;;;;;;;9.48;7.68;;;;;;;16.53;60.99;101780.59;5046845;28;20433;-56
2022/06/03 07:43:46;;;;;;;9.60;7.70;;;;;;;16.58;60.68;101772.81;5050791;28;20039;-54
2022/06/03 07:46:32;;;;;;;9.32;7.90;;;;;;;16.63;60.63;101781.13;5044603;28;20098;-54
2022/06/03 07:48:57;;;;;;;11.35;8.00;;;;;;;16.71;60.41;101774.84;5043158;28;20035;-53
2022/06/03 07:51:31;;;;;;;10.10;8.43;;;;;;;16.80;60.53;101773.75;5046384;28;20052;-54
2022/06/03 07:54:13;;;;;;;10.70;8.68;;;;;;;16.86;60.16;101777.50;5047796;28;20392;-52
2022/06/03 07:56:40;;;;;;;9.77;7.90;;;;;;;16.92;60.01;101764.16;5051851;28;20544;-54
2022/06/03 07:59:17;;;;;;;10.23;7.82;;;;;;;17.04;60.43;101767.16;5044842;28;20099;-54
2022/06/03 08:01:50;;;;;;;9.93;8.50;;;;;;;17.11;60.19;101760.03;5051106;28;20032;-53
2022/06/03 08:04:27;;;;;;;9.45;7.70;;;;;;;17.22;59.73;101767.56;5040458;28;20028;-54
2022/06/03 08:12:29;;;;;;;9.55;7.07;;;;;;;17.49;59.23;101757.91;5052585;28;19938;-55
2022/06/03 08:14:55;;;;;;;9.07;7.03;;;;;;;17.62;58.92;101751.81;5048423;28;20021;-54
2022/06/03 08:17:23;;;;;;;9.45;7.45;;;;;;;17.78;58.90;101753.41;5047447;28;20398;-55
2022/06/03 08:19:50;;;;;;;8.07;7.28;;;;;;;17.81;58.62;101753.84;5040063;28;20446;-55
2022/06/03 08:22:20;;;;;;;9.63;6.88;;;;;;;17.93;58.46;101741.56;5048519;28;20525;-54
2022/06/03 08:24:52;;;;;;;8.77;6.68;;;;;;;18.03;58.42;101738.50;5045749;28;20143;-56
2022/06/03 08:27:26;;;;;;;11.52;7.35;;;;;;;18.16;58.13;101727.81;5046004;28;20439;-56
2022/06/03 08:30:00;;;;;;;7.72;6.43;;;;;;;18.22;57.35;101721.66;5046052;28;20029;-54
2022/06/03 08:32:35;;;;;;;8.13;6.53;;;;;;;18.40;57.12;101726.47;5052279;28;20554;-56
2022/06/03 08:35:10;;;;;;;11.90;6.47;;;;;;;18.48;56.36;101730.84;5049135;28;20044;-55
2022/06/03 08:37:46;;;;;;;7.35;6.05;;;;;;;18.69;56.38;101736.16;5052833;28;20070;-56
2022/06/03 08:40:24;;;;;;;7.35;6.13;;;;;;;18.93;56.33;101732.06;5051373;28;20021;-56
2022/06/03 08:43:25;;;;;;;7.18;6.07;;;;;;;19.16;56.37;101729.84;5054410;28;20020;-55
2022/06/03 08:45:55;;;;;;;7.25;6.43;;;;;;;19.33;56.24;101732.13;5023324;28;20463;-56
2022/06/03 08:48:25;;;;;;;7.22;6.10;;;;;;;19.44;55.66;101735.03;5041916;28;20107;-55
2022/06/03 08:50:57;;;;;;;9.18;6.10;;;;;;;19.54;54.87;101728.44;5043958;28;20033;-56
2022/06/03 08:53:48;;;;;;;8.57;5.97;;;;;;;19.56;54.23;101729.03;5045770;28;20052;-57
2022/06/03 08:56:18;;;;;;;7.20;5.80;;;;;;;19.56;54.07;101729.03;5043538;28;20094;-55
2022/06/03 08:58:59;;;;;;;6.03;5.43;;;;;;;19.69;53.75;101732.56;5045042;28;20419;-53
2022/06/03 09:01:47;;;;;;;7.40;5.18;;;;;;;19.90;53.52;101744.97;5050171;28;20025;-55
2022/06/03 09:04:22;;;;;;;6.82;5.47;;;;;;;19.96;52.67;101744.16;5045907;28;20024;-56
2022/06/03 09:07:15;;;;;;;6.57;5.10;;;;;;;20.13;52.40;101739.13;5052633;28;20131;-57
2022/06/03 09:09:51;;;;;;;10.85;5.68;;;;;;;20.27;52.43;101735.34;5047910;28;20492;-55
2022/06/03 09:12:22;;;;;;;47.30;15.27;;;;;;;20.48;51.96;101742.34;5047795;28;20196;-55
2022/06/03 09:14:50;;;;;;;6.72;4.38;;;;;;;20.66;51.54;101739.78;5049353;28;20054;-54
2022/06/03 09:17:38;;;;;;;7.32;4.20;;;;;;;20.76;51.45;101728.50;5052265;28;20168;-55
2022/06/03 09:20:10;;;;;;;5.43;4.13;;;;;;;20.93;50.81;101736.94;5049063;28;20401;-55
2022/06/03 09:22:36;;;;;;;6.70;4.50;;;;;;;20.96;49.96;101736.50;5048327;28;20021;-54
2022/06/03 09:25:06;;;;;;;5.85;4.13;;;;;;;21.13;49.88;101726.00;5052748;28;20104;-56
2022/06/03 09:27:32;;;;;;;5.43;3.90;;;;;;;21.25;49.25;101724.28;5049767;28;20021;-55
2022/06/03 09:30:03;;;;;;;8.00;3.60;;;;;;;21.34;48.58;101726.47;5056837;28;20029;-54
2022/06/03 09:32:37;;;;;;;8.45;3.60;;;;;;;21.40;47.92;101724.81;5046897;28;20035;-55
2022/06/03 09:35:08;;;;;;;4.93;3.67;;;;;;;21.33;46.57;101735.63;5043900;28;20029;-56
2022/06/03 09:37:38;;;;;;;6.68;4.13;;;;;;;21.47;47.13;101736.38;5046908;28;20060;-54
2022/06/03 09:40:08;;;;;;;5.57;3.55;;;;;;;21.66;47.82;101729.13;5051417;28;20039;-52
2022/06/03 09:42:35;;;;;;;6.45;2.85;;;;;;;21.75;46.84;101726.97;5048284;28;20111;-55
2022/06/03 09:45:04;;;;;;;4.82;3.28;;;;;;;21.86;46.33;101712.72;5047151;28;20104;-55
2022/06/03 09:47:30;;;;;;;3.33;3.03;;;;;;;21.92;46.18;101712.63;5052904;28;20028;-55
2022/06/03 09:49:55;;;;;;;4.63;3.17;;;;;;;21.99;45.59;101717.16;5051778;28;20032;-55
2022/06/03 09:52:26;;;;;;;3.03;2.60;;;;;;;22.10;45.38;101714.56;5051864;28;20423;-55
2022/06/03 09:54:54;;;;;;;4.20;2.75;;;;;;;22.22;45.10;101717.31;5047245;28;20489;-55
2022/06/03 09:57:26;;;;;;;4.75;2.42;;;;;;;22.47;44.35;101709.94;5047072;28;20091;-54
2022/06/03 09:59:57;;;;;;;4.10;2.40;;;;;;;22.44;43.37;101707.69;5053254;28;20082;-54
2022/06/03 10:02:25;;;;;;;2.85;1.92;;;;;;;22.29;42.08;101709.97;5049797;28;20420;-54
2022/06/03 10:04:50;;;;;;;2.50;2.30;;;;;;;22.34;41.37;101703.88;5049185;28;20027;-55
2022/06/03 10:07:16;;;;;;;5.88;2.20;;;;;;;22.27;42.02;101709.38;5047660;28;20028;-55
2022/06/03 10:12:49;;;;;;;2.70;2.20;;;;;;;22.45;41.05;101711.22;5052959;28;20155;-54
2022/06/03 10:15:43;;;;;;;3.33;2.30;;;;;;;22.48;41.50;101702.63;5042317;28;20091;-56
2022/06/03 10:18:36;;;;;;;2.42;2.20;;;;;;;22.64;41.77;101703.91;5036332;28;20090;-56
2022/06/03 10:21:07;;;;;;;2.85;1.85;;;;;;;22.80;41.51;101693.22;5046556;28;20025;-54
2022/06/03 10:23:40;;;;;;;4.85;2.20;;;;;;;22.91;40.82;101691.66;5047085;28;20155;-55
2022/06/03 10:26:05;;;;;;;3.13;2.10;;;;;;;22.92;41.12;101685.19;5046339;28;20044;-55
2022/06/03 10:28:37;;;;;;;2.60;2.17;;;;;;;22.93;40.29;101688.72;5047110;28;20476;-54
2022/06/03 10:31:11;;;;;;;3.67;2.05;;;;;;;23.17;40.19;101685.00;5048389;28;20025;-57
2022/06/03 10:33:37;;;;;;;2.33;2.13;;;;;;;23.35;39.38;101676.75;5046042;28;20029;-53
2022/06/03 10:36:04;;;;;;;4.40;2.55;;;;;;;23.29;38.95;101677.69;5050985;28;20021;-55
2022/06/03 10:38:32;;;;;;;3.80;2.38;;;;;;;23.47;40.07;101671.34;5042733;28;20037;-57
2022/06/03 10:41:05;;;;;;;3.20;2.28;;;;;;;23.57;40.01;101674.31;5045131;28;20116;-56
2022/06/03 10:43:33;;;;;;;3.40;1.60;;;;;;;23.67;39.62;101666.41;5045358;28;20072;-56
2022/06/03 10:46:10;;;;;;;2.42;2.10;;;;;;;23.64;38.98;101672.31;5044365;28;20039;-56
2022/06/03 10:48:36;;;;;;;4.32;2.40;;;;;;;23.54;39.40;101672.06;5046312;28;20033;-52
2022/06/03 10:51:19;;;;;;;3.70;2.08;;;;;;;23.45;38.76;101674.31;5044806;28;20515;-54
2022/06/03 11:02:44;;;;;;;4.28;1.80;;;;;;;23.45;38.12;101673.47;5042892;28;20164;-55
2022/06/03 11:05:22;;;;;;;2.85;2.10;;;;;;;23.35;37.41;101667.78;5049626;28;20028;-56
2022/06/03 11:08:05;;;;;;;3.97;2.80;;;;;;;23.44;37.63;101669.13;5045930;28;20024;-55
2022/06/03 11:10:32;;;;;;;4.47;2.05;;;;;;;23.40;37.59;101676.03;5040600;28;20025;-55
2022/06/03 11:13:03;;;;;;;2.40;2.13;;;;;;;23.30;37.46;101659.56;5042935;28;20299;-56
2022/06/03 11:15:35;;;;;;;2.00;1.90;;;;;;;23.60;37.87;101664.88;5047204;28;20032;-56
2022/06/03 11:18:16;;;;;;;2.50;2.08;;;;;;;23.86;38.94;101658.13;5045796;28;20029;-57
2022/06/03 11:20:44;;;;;;;3.13;2.53;;;;;;;23.95;38.28;101651.25;5046869;28;20032;-56
2022/06/03 11:23:11;;;;;;;4.63;2.60;;;;;;;23.85;38.25;101667.34;5041099;28;20032;-56
2022/06/03 11:25:49;;;;;;;3.88;2.83;;;;;;;23.75;38.05;101652.50;5043376;28;20492;-56
2022/06/03 11:28:53;;;;;;;5.03;2.60;;;;;;;23.94;38.63;101650.44;5044314;28;20025;-56
2022/06/03 11:31:30;;;;;;;4.93;2.33;;;;;;;24.10;38.40;101654.31;5027821;28;20083;-56
2022/06/03 11:34:10;;;;;;;3.33;2.67;;;;;;;24.26;38.11;101644.56;5044230;28;20308;-55
2022/06/03 11:36:41;;;;;;;2.88;2.08;;;;;;;24.37;38.08;101639.13;5047620;28;20551;-56
2022/06/03 11:39:21;;;;;;;2.70;2.50;;;;;;;24.35;37.67;101643.97;5046846;28;20114;-54
2022/06/03 11:41:53;;;;;;;2.42;2.20;;;;;;;24.20;37.91;101648.25;5044605;28;20029;-56
2022/06/03 11:44:25;;;;;;;5.03;2.20;;;;;;;24.16;38.28;101642.47;5040823;28;20586;-55
2022/06/03 11:46:57;;;;;;;3.42;2.25;;;;;;;24.12;38.02;101638.59;5044885;28;20446;-55
2022/06/03 11:49:24;;;;;;;4.57;2.33;;;;;;;24.22;37.68;101641.50;5051215;28;20029;-55
2022/06/03 11:51:50;;;;;;;6.53;2.63;;;;;;;24.24;37.57;101636.66;5052405;28;20487;-56
2022/06/03 11:54:21;;;;;;;2.38;1.98;;;;;;;24.49;37.99;101627.38;5047426;28;20033;-54
2022/06/03 11:56:47;;;;;;;3.05;2.35;;;;;;;24.49;37.34;101633.63;5056721;28;20079;-55
2022/06/03 11:59:15;;;;;;;2.63;1.80;;;;;;;24.55;36.69;101637.25;5049515;28;20764;-55
2022/06/03 12:01:49;;;;;;;3.13;2.17;;;;;;;24.67;36.58;101643.47;5051325;28;20104;-54
2022/06/03 12:04:22;;;;;;;2.85;1.80;;;;;;;24.81;36.92;101644.78;5050655;28;20040;-55
2022/06/03 12:07:10;;;;;;;3.35;1.83;;;;;;;25.05;36.99;101647.41;5047795;28;20028;-56
2022/06/03 12:09:45;;;;;;;2.95;1.40;;;;;;;24.91;35.47;101645.00;5050744;28;20036;-56
2022/06/03 12:15:30;;;;;;;1.92;1.50;;;;;;;24.57;33.86;101643.28;5048361;28;20040;-56
2022/06/03 12:18:37;;;;;;;1.98;1.38;;;;;;;24.30;33.87;101643.88;5048266;28;20395;-55
2022/06/03 12:21:06;;;;;;;3.05;1.35;;;;;;;24.17;33.54;101652.28;5049967;28;20040;-55
2022/06/03 12:23:37;;;;;;;4.43;1.30;;;;;;;24.19;34.05;101642.00;5049241;28;20029;-55
2022/06/03 12:26:06;;;;;;;1.30;1.20;;;;;;;24.18;33.75;101647.66;5049283;28;20078;-56
2022/06/03 12:28:37;;;;;;;3.67;1.25;;;;;;;24.33;34.59;101648.00;5044259;28;20079;-55
2022/06/03 12:31:18;;;;;;;2.13;1.42;;;;;;;24.45;34.91;101642.50;5047563;28;20485;-56
2022/06/03 12:33:58;;;;;;;1.42;1.33;;;;;;;24.61;34.44;101639.84;5043814;28;20032;-57
2022/06/03 12:36:50;;;;;;;1.48;1.38;;;;;;;24.83;34.09;101630.97;5043692;28;20032;-55
2022/06/03 12:39:18;;;;;;;1.80;1.13;;;;;;;24.93;35.07;101631.16;5049515;28;20328;-55
2022/06/03 12:41:44;;;;;;;2.25;1.75;;;;;;;25.06;34.30;101625.41;5050385;28;20401;-56
2022/06/03 12:44:31;;;;;;;1.90;1.50;;;;;;;25.29;34.26;101621.69;5049513;28;20039;-56
2022/06/03 12:47:18;;;;;;;4.05;1.58;;;;;;;25.32;33.77;101619.28;5044738;28;20357;-56
2022/06/03 12:49:43;;;;;;;2.65;1.52;;;;;;;25.32;33.43;101618.47;5047210;28;20028;-55
2022/06/03 12:52:34;;;;;;;3.50;1.30;;;;;;;25.49;33.36;101621.97;5057745;28;20381;-56
2022/06/03 12:55:11;;;;;;;1.77;1.20;;;;;;;25.59;32.77;101633.00;5049208;28;20456;-55
2022/06/03 12:57:49;;;;;;;3.92;1.60;;;;;;;25.66;32.74;101624.66;5051450;28;20027;-56